sensor_id;sensor_type;location;lat;lon;timestamp;pressure;altitude;pressure_sealevel;temperature;humidity
8717;BME280;4395;48.554;8.820;2022-09-09T00:00:01;95611.22;;;16.05;98.28
8717;BME280;4395;48.554;8.820;2022-09-09T00:02:08;95612.81;;;16.06;98.04
8717;BME280;4395;48.554;8.820;2022-09-09T00:04:21;95598.38;;;16.11;97.55
8717;BME280;4395;48.554;8.820;2022-09-09T00:06:29;95596.47;;;16.11;97.33
8717;BME280;4395;48.554;8.820;2022-09-09T00:08:39;95532.78;;;15.76;97.33
8717;BME280;4395;48.554;8.820;2022-09-09T00:10:51;95599.19;;;16.11;96.98
8717;BME280;4395;48.554;8.820;2022-09-09T00:13:02;95596.69;;;16.15;97.49
8717;BME280;4395;48.554;8.820;2022-09-09T00:15:13;95592.66;;;16.12;97.39
8717;BME280;4395;48.554;8.820;2022-09-09T00:17:27;95598.09;;;16.12;97.61
8717;BME280;4395;48.554;8.820;2022-09-09T00:19:40;95588.34;;;16.11;97.52
8717;BME280;4395;48.554;8.820;2022-09-09T00:21:55;95569.41;;;15.92;97.32
8717;BME280;4395;48.554;8.820;2022-09-09T00:24:10;95590.34;;;16.05;97.51
8717;BME280;4395;48.554;8.820;2022-09-09T00:26:20;95588.34;;;16.11;97.56
8717;BME280;4395;48.554;8.820;2022-09-09T00:28:26;95601.81;;;16.16;96.91
8717;BME280;4395;48.554;8.820;2022-09-09T00:30:34;95542.88;;;15.89;96.68
8717;BME280;4395;48.554;8.820;2022-09-09T00:32:38;95588.28;;;16.16;97.18
8717;BME280;4395;48.554;8.820;2022-09-09T00:34:46;95584.09;;;16.24;96.73
8717;BME280;4395;48.554;8.820;2022-09-09T00:36:52;95585.41;;;16.26;96.52
8717;BME280;4395;48.554;8.820;2022-09-09T00:38:58;95586.41;;;16.30;96.37
8717;BME280;4395;48.554;8.820;2022-09-09T00:41:10;95578.00;;;16.32;96.83
8717;BME280;4395;48.554;8.820;2022-09-09T00:43:24;95475.75;;;15.67;96.62
8717;BME280;4395;48.554;8.820;2022-09-09T00:45:43;95578.19;;;16.35;96.24
8717;BME280;4395;48.554;8.820;2022-09-09T00:47:53;95578.50;;;16.34;96.53
8717;BME280;4395;48.554;8.820;2022-09-09T00:50:01;95574.97;;;16.33;95.76
8717;BME280;4395;48.554;8.820;2022-09-09T00:52:15;95492.44;;;15.74;96.51
8717;BME280;4395;48.554;8.820;2022-09-09T00:54:30;95465.38;;;15.51;96.25
8717;BME280;4395;48.554;8.820;2022-09-09T00:56:37;95584.91;;;16.05;98.75
8717;BME280;4395;48.554;8.820;2022-09-09T00:58:49;95520.28;;;15.37;100.00
8717;BME280;4395;48.554;8.820;2022-09-09T01:00:58;95589.53;;;16.05;99.57
8717;BME280;4395;48.554;8.820;2022-09-09T01:03:21;95538.00;;;15.72;99.37
8717;BME280;4395;48.554;8.820;2022-09-09T01:05:30;95590.63;;;16.04;99.29
8717;BME280;4395;48.554;8.820;2022-09-09T01:07:36;95586.81;;;16.05;99.61
8717;BME280;4395;48.554;8.820;2022-09-09T01:09:49;95490.16;;;15.01;99.63
8717;BME280;4395;48.554;8.820;2022-09-09T01:12:01;95497.81;;;15.37;100.00
8717;BME280;4395;48.554;8.820;2022-09-09T01:14:14;95580.88;;;15.84;100.00
8717;BME280;4395;48.554;8.820;2022-09-09T01:16:21;95468.38;;;15.11;100.00
8717;BME280;4395;48.554;8.820;2022-09-09T01:18:27;95584.91;;;15.87;100.00
8717;BME280;4395;48.554;8.820;2022-09-09T01:20:38;95585.13;;;15.71;100.00
8717;BME280;4395;48.554;8.820;2022-09-09T01:22:50;95592.78;;;15.40;100.00
8717;BME280;4395;48.554;8.820;2022-09-09T01:27:40;95594.34;;;15.47;100.00
8717;BME280;4395;48.554;8.820;2022-09-09T01:29:45;95343.00;;;13.64;100.00
8717;BME280;4395;48.554;8.820;2022-09-09T01:31:54;95471.47;;;14.81;100.00
8717;BME280;4395;48.554;8.820;2022-09-09T01:33:57;95221.66;;;13.25;100.00
8717;BME280;4395;48.554;8.820;2022-09-09T01:36:05;95591.25;;;15.58;100.00
8717;BME280;4395;48.554;8.820;2022-09-09T01:38:18;95599.91;;;15.55;100.00
8717;BME280;4395;48.554;8.820;2022-09-09T01:40:24;95608.97;;;15.45;100.00
8717;BME280;4395;48.554;8.820;2022-09-09T01:42:28;95604.25;;;15.56;100.00
8717;BME280;4395;48.554;8.820;2022-09-09T01:44:34;95604.75;;;15.63;100.00
8717;BME280;4395;48.554;8.820;2022-09-09T01:46:38;95496.44;;;14.97;100.00
8717;BME280;4395;48.554;8.820;2022-09-09T01:48:48;95624.09;;;15.28;100.00
8717;BME280;4395;48.554;8.820;2022-09-09T01:50:52;95615.31;;;15.36;100.00
8717;BME280;4395;48.554;8.820;2022-09-09T01:52:57;95610.66;;;15.18;100.00
8717;BME280;4395;48.554;8.820;2022-09-09T01:55:04;95609.28;;;15.20;100.00
8717;BME280;4395;48.554;8.820;2022-09-09T01:57:17;95607.50;;;15.10;100.00
8717;BME280;4395;48.554;8.820;2022-09-09T02:02:01;95609.00;;;14.98;100.00
8717;BME280;4395;48.554;8.820;2022-09-09T02:04:19;95608.06;;;14.84;100.00
8717;BME280;4395;48.554;8.820;2022-09-09T02:06:30;95608.53;;;14.91;100.00
8717;BME280;4395;48.554;8.820;2022-09-09T02:08:49;95613.25;;;15.04;100.00
8717;BME280;4395;48.554;8.820;2022-09-09T02:10:55;95610.94;;;14.92;100.00
8717;BME280;4395;48.554;8.820;2022-09-09T02:13:11;95615.19;;;14.98;100.00
8717;BME280;4395;48.554;8.820;2022-09-09T02:15:22;95420.63;;;13.48;100.00
8717;BME280;4395;48.554;8.820;2022-09-09T02:17:31;95610.22;;;14.82;100.00
8717;BME280;4395;48.554;8.820;2022-09-09T02:19:46;95619.31;;;14.67;100.00
8717;BME280;4395;48.554;8.820;2022-09-09T02:22:05;95607.69;;;14.66;100.00
8717;BME280;4395;48.554;8.820;2022-09-09T02:24:09;95602.13;;;14.53;100.00
8717;BME280;4395;48.554;8.820;2022-09-09T02:26:20;95621.16;;;13.98;100.00
8717;BME280;4395;48.554;8.820;2022-09-09T02:28:33;95560.72;;;14.23;100.00
8717;BME280;4395;48.554;8.820;2022-09-09T02:30:38;95614.31;;;14.50;100.00
8717;BME280;4395;48.554;8.820;2022-09-09T02:32:45;95490.91;;;13.72;100.00
8717;BME280;4395;48.554;8.820;2022-09-09T02:34:52;95598.28;;;14.59;100.00
8717;BME280;4395;48.554;8.820;2022-09-09T02:36:59;95592.50;;;14.70;100.00
8717;BME280;4395;48.554;8.820;2022-09-09T02:39:05;95598.53;;;14.62;100.00
8717;BME280;4395;48.554;8.820;2022-09-09T02:41:10;95573.94;;;14.59;100.00
8717;BME280;4395;48.554;8.820;2022-09-09T02:43:14;95609.44;;;14.81;100.00
8717;BME280;4395;48.554;8.820;2022-09-09T02:45:20;95613.22;;;14.80;100.00
8717;BME280;4395;48.554;8.820;2022-09-09T02:47:30;95599.38;;;14.58;100.00
8717;BME280;4395;48.554;8.820;2022-09-09T02:49:53;95595.00;;;14.62;100.00
8717;BME280;4395;48.554;8.820;2022-09-09T02:52:05;95471.91;;;13.82;100.00
8717;BME280;4395;48.554;8.820;2022-09-09T02:54:16;95569.78;;;14.42;100.00
8717;BME280;4395;48.554;8.820;2022-09-09T02:56:25;95599.00;;;14.35;100.00
8717;BME280;4395;48.554;8.820;2022-09-09T02:58:33;95600.94;;;14.30;100.00
8717;BME280;4395;48.554;8.820;2022-09-09T03:00:40;95605.44;;;14.39;100.00
8717;BME280;4395;48.554;8.820;2022-09-09T03:02:43;95591.41;;;14.42;100.00
8717;BME280;4395;48.554;8.820;2022-09-09T03:04:48;95385.88;;;12.93;100.00
8717;BME280;4395;48.554;8.820;2022-09-09T03:06:53;95599.09;;;14.25;100.00
8717;BME280;4395;48.554;8.820;2022-09-09T03:08:56;95605.28;;;14.26;100.00
8717;BME280;4395;48.554;8.820;2022-09-09T03:11:03;95600.06;;;14.00;100.00
8717;BME280;4395;48.554;8.820;2022-09-09T03:13:09;95598.94;;;14.06;100.00
8717;BME280;4395;48.554;8.820;2022-09-09T03:15:15;95598.63;;;14.13;100.00
8717;BME280;4395;48.554;8.820;2022-09-09T03:17:19;95600.28;;;14.09;100.00
8717;BME280;4395;48.554;8.820;2022-09-09T03:19:26;95170.00;;;11.46;100.00
8717;BME280;4395;48.554;8.820;2022-09-09T03:21:32;95595.91;;;14.18;100.00
8717;BME280;4395;48.554;8.820;2022-09-09T03:23:35;95581.28;;;14.19;100.00
8717;BME280;4395;48.554;8.820;2022-09-09T03:25:38;95580.16;;;14.25;100.00
8717;BME280;4395;48.554;8.820;2022-09-09T03:27:41;95583.34;;;14.32;100.00
8717;BME280;4395;48.554;8.820;2022-09-09T03:29:46;95584.72;;;14.30;100.00
8717;BME280;4395;48.554;8.820;2022-09-09T03:31:55;95601.88;;;14.15;100.00
8717;BME280;4395;48.554;8.820;2022-09-09T03:33:58;95602.09;;;14.19;100.00
8717;BME280;4395;48.554;8.820;2022-09-09T03:36:05;95594.28;;;14.17;100.00
8717;BME280;4395;48.554;8.820;2022-09-09T03:38:10;95326.03;;;12.41;100.00
8717;BME280;4395;48.554;8.820;2022-09-09T03:40:13;95597.81;;;14.12;100.00
8717;BME280;4395;48.554;8.820;2022-09-09T03:42:20;95599.53;;;14.03;100.00
8717;BME280;4395;48.554;8.820;2022-09-09T03:44:26;95604.59;;;14.10;100.00
8717;BME280;4395;48.554;8.820;2022-09-09T03:46:29;95347.25;;;12.58;100.00
8717;BME280;4395;48.554;8.820;2022-09-09T03:48:33;95086.31;;;9.51;100.00
8717;BME280;4395;48.554;8.820;2022-09-09T03:50:37;95601.88;;;14.15;100.00
8717;BME280;4395;48.554;8.820;2022-09-09T03:52:41;95610.84;;;14.05;100.00
8717;BME280;4395;48.554;8.820;2022-09-09T03:54:51;95608.34;;;14.14;100.00
8717;BME280;4395;48.554;8.820;2022-09-09T03:56:55;95609.16;;;14.14;100.00
8717;BME280;4395;48.554;8.820;2022-09-09T03:58:59;95609.44;;;14.13;100.00
8717;BME280;4395;48.554;8.820;2022-09-09T04:01:04;95605.91;;;14.18;100.00
8717;BME280;4395;48.554;8.820;2022-09-09T04:03:08;95613.16;;;14.22;100.00
8717;BME280;4395;48.554;8.820;2022-09-09T04:05:11;95560.38;;;14.01;100.00
8717;BME280;4395;48.554;8.820;2022-09-09T04:07:16;95488.28;;;13.62;100.00
8717;BME280;4395;48.554;8.820;2022-09-09T04:09:19;95594.19;;;14.27;100.00
8717;BME280;4395;48.554;8.820;2022-09-09T04:11:24;95596.28;;;14.35;100.00
8717;BME280;4395;48.554;8.820;2022-09-09T04:13:30;95590.69;;;14.27;100.00
8717;BME280;4395;48.554;8.820;2022-09-09T04:15:33;95596.06;;;14.32;100.00
8717;BME280;4395;48.554;8.820;2022-09-09T04:17:36;95476.47;;;13.53;100.00
8717;BME280;4395;48.554;8.820;2022-09-09T04:19:39;95599.59;;;14.27;100.00
8717;BME280;4395;48.554;8.820;2022-09-09T04:21:42;95601.97;;;14.34;100.00
8717;BME280;4395;48.554;8.820;2022-09-09T04:23:45;95417.28;;;13.23;100.00
8717;BME280;4395;48.554;8.820;2022-09-09T04:25:50;95391.25;;;12.93;100.00
8717;BME280;4395;48.554;8.820;2022-09-09T04:27:55;95414.66;;;13.07;100.00
8717;BME280;4395;48.554;8.820;2022-09-09T04:29:58;95594.00;;;14.53;100.00
8717;BME280;4395;48.554;8.820;2022-09-09T04:32:05;95597.19;;;14.60;100.00
8717;BME280;4395;48.554;8.820;2022-09-09T04:34:08;95596.63;;;14.63;100.00
8717;BME280;4395;48.554;8.820;2022-09-09T04:36:10;95593.06;;;14.67;100.00
8717;BME280;4395;48.554;8.820;2022-09-09T04:38:14;95403.63;;;13.48;100.00
8717;BME280;4395;48.554;8.820;2022-09-09T04:40:18;95382.09;;;13.38;100.00
8717;BME280;4395;48.554;8.820;2022-09-09T04:42:21;95598.66;;;14.76;100.00
8717;BME280;4395;48.554;8.820;2022-09-09T04:44:26;95257.00;;;12.50;100.00
8717;BME280;4395;48.554;8.820;2022-09-09T04:46:28;95027.84;;;11.14;100.00
8717;BME280;4395;48.554;8.820;2022-09-09T04:48:32;95600.28;;;14.77;100.00
8717;BME280;4395;48.554;8.820;2022-09-09T04:50:37;95616.44;;;14.82;100.00
8717;BME280;4395;48.554;8.820;2022-09-09T04:52:44;95534.88;;;14.41;100.00
8717;BME280;4395;48.554;8.820;2022-09-09T04:54:48;95607.53;;;14.82;100.00
8717;BME280;4395;48.554;8.820;2022-09-09T04:56:50;95611.75;;;14.64;100.00
8717;BME280;4395;48.554;8.820;2022-09-09T04:58:53;95355.28;;;13.17;100.00
8717;BME280;4395;48.554;8.820;2022-09-09T05:01:12;95608.63;;;14.80;100.00
8717;BME280;4395;48.554;8.820;2022-09-09T05:03:17;95611.28;;;14.86;100.00
8717;BME280;4395;48.554;8.820;2022-09-09T05:05:20;95619.09;;;14.87;100.00
8717;BME280;4395;48.554;8.820;2022-09-09T05:07:24;95617.16;;;14.93;100.00
8717;BME280;4395;48.554;8.820;2022-09-09T05:09:27;95618.47;;;14.95;100.00
8717;BME280;4395;48.554;8.820;2022-09-09T05:11:31;95433.94;;;13.69;100.00
8717;BME280;4395;48.554;8.820;2022-09-09T05:14:01;95447.53;;;13.59;100.00
8717;BME280;4395;48.554;8.820;2022-09-09T05:16:06;95525.31;;;14.25;100.00
8717;BME280;4395;48.554;8.820;2022-09-09T05:18:12;95564.84;;;14.50;100.00
8717;BME280;4395;48.554;8.820;2022-09-09T05:20:15;95625.56;;;14.91;100.00
8717;BME280;4395;48.554;8.820;2022-09-09T05:22:19;95632.53;;;14.97;100.00
8717;BME280;4395;48.554;8.820;2022-09-09T05:24:23;95245.59;;;12.64;100.00
8717;BME280;4395;48.554;8.820;2022-09-09T05:26:29;95611.72;;;14.69;100.00
8717;BME280;4395;48.554;8.820;2022-09-09T05:28:34;95593.31;;;14.71;100.00
8717;BME280;4395;48.554;8.820;2022-09-09T05:30:38;95641.81;;;15.15;100.00
8717;BME280;4395;48.554;8.820;2022-09-09T05:32:42;95687.06;;;15.09;100.00
8717;BME280;4395;48.554;8.820;2022-09-09T05:34:46;95637.22;;;15.16;100.00
8717;BME280;4395;48.554;8.820;2022-09-09T05:36:50;95331.53;;;13.14;100.00
8717;BME280;4395;48.554;8.820;2022-09-09T05:38:55;95633.69;;;15.15;100.00
8717;BME280;4395;48.554;8.820;2022-09-09T05:41:01;95194.53;;;12.43;100.00
8717;BME280;4395;48.554;8.820;2022-09-09T05:43:05;95637.22;;;15.16;100.00
8717;BME280;4395;48.554;8.820;2022-09-09T05:45:08;95642.63;;;15.16;100.00
8717;BME280;4395;48.554;8.820;2022-09-09T05:47:12;95635.03;;;15.18;100.00
8717;BME280;4395;48.554;8.820;2022-09-09T05:49:18;95325.59;;;13.12;100.00
8717;BME280;4395;48.554;8.820;2022-09-09T05:51:23;95635.03;;;15.18;100.00
8717;BME280;4395;48.554;8.820;2022-09-09T05:53:28;95454.94;;;14.06;100.00
8717;BME280;4395;48.554;8.820;2022-09-09T05:55:33;95631.00;;;15.39;100.00
8717;BME280;4395;48.554;8.820;2022-09-09T05:57:37;95641.94;;;15.29;100.00
8717;BME280;4395;48.554;8.820;2022-09-09T05:59:41;95640.44;;;15.41;100.00
8717;BME280;4395;48.554;8.820;2022-09-09T06:01:43;95630.41;;;15.42;100.00
8717;BME280;4395;48.554;8.820;2022-09-09T06:03:56;95644.81;;;15.37;100.00
8717;BME280;4395;48.554;8.820;2022-09-09T06:06:02;95643.66;;;15.43;100.00
8717;BME280;4395;48.554;8.820;2022-09-09T06:08:07;95644.25;;;15.40;100.00
8717;BME280;4395;48.554;8.820;2022-09-09T06:10:10;94590.97;;;8.87;100.00
8717;BME280;4395;48.554;8.820;2022-09-09T06:12:15;95640.78;;;15.59;100.00
8717;BME280;4395;48.554;8.820;2022-09-09T06:14:17;95644.69;;;15.48;100.00
8717;BME280;4395;48.554;8.820;2022-09-09T06:16:24;95644.41;;;15.25;100.00
8717;BME280;4395;48.554;8.820;2022-09-09T06:18:28;95639.63;;;15.41;100.00
8717;BME280;4395;48.554;8.820;2022-09-09T06:20:31;95634.47;;;15.68;100.00
8717;BME280;4395;48.554;8.820;2022-09-09T06:22:35;95537.78;;;15.02;100.00
8717;BME280;4395;48.554;8.820;2022-09-09T06:24:37;95632.72;;;15.78;100.00
8717;BME280;4395;48.554;8.820;2022-09-09T06:26:41;95534.03;;;14.98;100.00
8717;BME280;4395;48.554;8.820;2022-09-09T06:28:47;95640.28;;;15.81;100.00
8717;BME280;4395;48.554;8.820;2022-09-09T06:30:57;95439.84;;;14.58;100.00
8717;BME280;4395;48.554;8.820;2022-09-09T06:33:00;95251.78;;;13.61;100.00
8717;BME280;4395;48.554;8.820;2022-09-09T06:35:03;95374.44;;;14.56;100.00
8717;BME280;4395;48.554;8.820;2022-09-09T06:37:06;95636.69;;;16.42;100.00
8717;BME280;4395;48.554;8.820;2022-09-09T06:39:16;95640.84;;;16.53;100.00
8717;BME280;4395;48.554;8.820;2022-09-09T06:41:20;95645.00;;;16.64;100.00
8717;BME280;4395;48.554;8.820;2022-09-09T06:43:24;95626.06;;;16.26;100.00
8717;BME280;4395;48.554;8.820;2022-09-09T06:45:29;95643.06;;;16.83;100.00
8717;BME280;4395;48.554;8.820;2022-09-09T06:47:33;95478.22;;;15.83;100.00
8717;BME280;4395;48.554;8.820;2022-09-09T06:49:37;95406.69;;;15.46;100.00
8717;BME280;4395;48.554;8.820;2022-09-09T06:51:42;95644.81;;;17.07;100.00
8717;BME280;4395;48.554;8.820;2022-09-09T06:53:50;95643.72;;;17.08;100.00
8717;BME280;4395;48.554;8.820;2022-09-09T06:55:57;95640.63;;;17.14;100.00
8717;BME280;4395;48.554;8.820;2022-09-09T06:57:59;95641.03;;;17.21;100.00
8717;BME280;4395;48.554;8.820;2022-09-09T07:00:05;95646.34;;;17.26;100.00
8717;BME280;4395;48.554;8.820;2022-09-09T07:02:08;95653.59;;;17.31;100.00
8717;BME280;4395;48.554;8.820;2022-09-09T07:04:11;95658.84;;;17.27;100.00
8717;BME280;4395;48.554;8.820;2022-09-09T07:06:19;95518.47;;;16.40;100.00
8717;BME280;4395;48.554;8.820;2022-09-09T07:08:23;95556.34;;;16.46;100.00
8717;BME280;4395;48.554;8.820;2022-09-09T07:10:26;95650.38;;;17.15;100.00
8717;BME280;4395;48.554;8.820;2022-09-09T07:12:30;95654.00;;;17.24;100.00
8717;BME280;4395;48.554;8.820;2022-09-09T07:14:34;95659.44;;;17.38;100.00
8717;BME280;4395;48.554;8.820;2022-09-09T07:16:41;95662.88;;;17.44;100.00
8717;BME280;4395;48.554;8.820;2022-09-09T07:18:44;95646.56;;;17.44;100.00
8717;BME280;4395;48.554;8.820;2022-09-09T07:20:53;95660.06;;;17.49;100.00
8717;BME280;4395;48.554;8.820;2022-09-09T07:23:00;95662.47;;;17.50;100.00
8717;BME280;4395;48.554;8.820;2022-09-09T07:25:03;95654.53;;;17.54;100.00
8717;BME280;4395;48.554;8.820;2022-09-09T07:27:07;95655.63;;;17.39;100.00
8717;BME280;4395;48.554;8.820;2022-09-09T07:29:12;95573.81;;;16.72;100.00
8717;BME280;4395;48.554;8.820;2022-09-09T07:31:24;95656.53;;;17.48;100.00
8717;BME280;4395;48.554;8.820;2022-09-09T07:33:29;95602.50;;;17.19;100.00
8717;BME280;4395;48.554;8.820;2022-09-09T07:35:32;95674.13;;;17.51;100.00
8717;BME280;4395;48.554;8.820;2022-09-09T07:37:36;95609.75;;;17.10;100.00
8717;BME280;4395;48.554;8.820;2022-09-09T07:39:40;95668.31;;;17.44;100.00
8717;BME280;4395;48.554;8.820;2022-09-09T07:41:44;95668.91;;;17.54;100.00
8717;BME280;4395;48.554;8.820;2022-09-09T07:43:50;95663.06;;;17.61;100.00
8717;BME280;4395;48.554;8.820;2022-09-09T07:45:58;95423.28;;;15.96;100.00
8717;BME280;4395;48.554;8.820;2022-09-09T07:48:02;95667.94;;;17.78;100.00
8717;BME280;4395;48.554;8.820;2022-09-09T07:50:06;95663.09;;;17.75;100.00
8717;BME280;4395;48.554;8.820;2022-09-09T07:52:10;95662.69;;;17.81;100.00
8717;BME280;4395;48.554;8.820;2022-09-09T07:54:21;95677.19;;;17.77;100.00
8717;BME280;4395;48.554;8.820;2022-09-09T07:56:27;95683.03;;;17.84;100.00
8717;BME280;4395;48.554;8.820;2022-09-09T07:58:30;95645.78;;;17.71;100.00
8717;BME280;4395;48.554;8.820;2022-09-09T08:00:39;95677.34;;;18.21;100.00
8717;BME280;4395;48.554;8.820;2022-09-09T08:02:46;95391.81;;;16.27;100.00
8717;BME280;4395;48.554;8.820;2022-09-09T08:04:49;95262.81;;;15.53;100.00
8717;BME280;4395;48.554;8.820;2022-09-09T08:06:56;95686.81;;;18.24;100.00
8717;BME280;4395;48.554;8.820;2022-09-09T08:09:00;95694.06;;;18.28;100.00
8717;BME280;4395;48.554;8.820;2022-09-09T08:11:07;95628.31;;;17.99;100.00
8717;BME280;4395;48.554;8.820;2022-09-09T08:13:12;95686.59;;;18.34;100.00
8717;BME280;4395;48.554;8.820;2022-09-09T08:15:19;95689.72;;;18.27;100.00
8717;BME280;4395;48.554;8.820;2022-09-09T08:17:23;95683.13;;;18.42;100.00
8717;BME280;4395;48.554;8.820;2022-09-09T08:19:27;95689.31;;;18.70;100.00
8717;BME280;4395;48.554;8.820;2022-09-09T08:21:33;95682.00;;;19.02;100.00
8717;BME280;4395;48.554;8.820;2022-09-09T08:23:38;95688.75;;;19.35;100.00
8717;BME280;4395;48.554;8.820;2022-09-09T08:25:43;95648.31;;;19.20;97.98
8717;BME280;4395;48.554;8.820;2022-09-09T08:27:47;95684.91;;;19.58;96.51
8717;BME280;4395;48.554;8.820;2022-09-09T08:29:50;95676.00;;;19.84;95.34
8717;BME280;4395;48.554;8.820;2022-09-09T08:31:55;95672.34;;;19.97;94.29
8717;BME280;4395;48.554;8.820;2022-09-09T08:34:01;95677.81;;;19.97;90.31
8717;BME280;4395;48.554;8.820;2022-09-09T08:36:08;95674.28;;;20.05;92.84
8717;BME280;4395;48.554;8.820;2022-09-09T08:38:11;95679.63;;;20.19;91.42
8717;BME280;4395;48.554;8.820;2022-09-09T08:40:22;95657.31;;;20.34;90.67
8717;BME280;4395;48.554;8.820;2022-09-09T08:42:38;95693.28;;;20.36;89.38
8717;BME280;4395;48.554;8.820;2022-09-09T08:45:00;95523.31;;;19.10;89.71
8717;BME280;4395;48.554;8.820;2022-09-09T08:47:09;95698.34;;;20.03;93.35
8717;BME280;4395;48.554;8.820;2022-09-09T08:49:44;95697.44;;;20.16;92.88
8717;BME280;4395;48.554;8.820;2022-09-09T08:51:54;95633.41;;;20.22;91.22
8717;BME280;4395;48.554;8.820;2022-09-09T08:54:02;95680.16;;;20.99;87.03
8717;BME280;4395;48.554;8.820;2022-09-09T08:56:10;95673.06;;;21.32;84.10
8717;BME280;4395;48.554;8.820;2022-09-09T08:58:27;95674.38;;;21.64;81.28
8717;BME280;4395;48.554;8.820;2022-09-09T09:00:40;95683.59;;;21.51;79.84
8717;BME280;4395;48.554;8.820;2022-09-09T09:02:51;95671.78;;;21.12;82.95
8717;BME280;4395;48.554;8.820;2022-09-09T09:05:09;95681.16;;;20.85;84.56
8717;BME280;4395;48.554;8.820;2022-09-09T09:07:25;95685.28;;;21.09;84.77
8717;BME280;4395;48.554;8.820;2022-09-09T09:09:42;95674.81;;;21.37;81.43
8717;BME280;4395;48.554;8.820;2022-09-09T09:11:51;95676.19;;;21.52;78.27
8717;BME280;4395;48.554;8.820;2022-09-09T09:13:58;95588.59;;;20.75;75.41
8717;BME280;4395;48.554;8.820;2022-09-09T09:16:13;95462.34;;;20.14;75.10
8717;BME280;4395;48.554;8.820;2022-09-09T09:18:20;95670.22;;;21.58;75.65
8717;BME280;4395;48.554;8.820;2022-09-09T09:20:29;95658.19;;;21.50;74.58
8717;BME280;4395;48.554;8.820;2022-09-09T09:22:44;95643.53;;;21.55;69.86
8717;BME280;4395;48.554;8.820;2022-09-09T09:24:53;95670.44;;;21.82;71.80
8717;BME280;4395;48.554;8.820;2022-09-09T09:27:08;95649.28;;;22.00;70.78
8717;BME280;4395;48.554;8.820;2022-09-09T09:29:19;95650.41;;;22.29;70.24
8717;BME280;4395;48.554;8.820;2022-09-09T09:31:24;95651.94;;;22.38;68.91
8717;BME280;4395;48.554;8.820;2022-09-09T09:33:33;95598.16;;;21.92;66.68
8717;BME280;4395;48.554;8.820;2022-09-09T09:35:38;95662.41;;;22.16;64.87
8717;BME280;4395;48.554;8.820;2022-09-09T09:37:48;95398.50;;;20.62;65.59
8717;BME280;4395;48.554;8.820;2022-09-09T09:40:12;95595.91;;;21.18;74.81
8717;BME280;4395;48.554;8.820;2022-09-09T09:42:17;95642.38;;;21.27;76.44
8717;BME280;4395;48.554;8.820;2022-09-09T09:44:28;95648.72;;;21.48;75.74
8717;BME280;4395;48.554;8.820;2022-09-09T09:46:40;95651.06;;;21.67;75.75
8717;BME280;4395;48.554;8.820;2022-09-09T09:48:56;95637.56;;;22.21;70.84
8717;BME280;4395;48.554;8.820;2022-09-09T09:51:05;95633.38;;;22.23;70.35
8717;BME280;4395;48.554;8.820;2022-09-09T09:53:21;95631.44;;;22.65;70.83
8717;BME280;4395;48.554;8.820;2022-09-09T09:55:26;95640.66;;;22.82;72.43
8717;BME280;4395;48.554;8.820;2022-09-09T09:57:32;95635.03;;;23.11;69.83
8717;BME280;4395;48.554;8.820;2022-09-09T09:59:40;95624.19;;;23.48;60.38
8717;BME280;4395;48.554;8.820;2022-09-09T10:01:49;95627.56;;;23.32;60.16
8717;BME280;4395;48.554;8.820;2022-09-09T10:03:57;95622.34;;;23.52;63.02
8717;BME280;4395;48.554;8.820;2022-09-09T10:06:01;95573.59;;;23.00;66.40
8717;BME280;4395;48.554;8.820;2022-09-09T10:08:05;95537.38;;;22.82;66.79
8717;BME280;4395;48.554;8.820;2022-09-09T10:10:19;95621.44;;;23.48;62.41
8717;BME280;4395;48.554;8.820;2022-09-09T10:12:31;95592.25;;;23.31;60.78
8717;BME280;4395;48.554;8.820;2022-09-09T10:14:43;95613.22;;;23.48;67.09
8717;BME280;4395;48.554;8.820;2022-09-09T10:17:02;95581.16;;;23.15;66.21
8717;BME280;4395;48.554;8.820;2022-09-09T10:19:13;95627.19;;;23.55;60.82
8717;BME280;4395;48.554;8.820;2022-09-09T10:21:28;95625.28;;;23.34;59.47
8717;BME280;4395;48.554;8.820;2022-09-09T10:23:48;95581.94;;;23.03;61.01
8717;BME280;4395;48.554;8.820;2022-09-09T10:26:07;95635.63;;;22.63;58.14
8717;BME280;4395;48.554;8.820;2022-09-09T10:28:28;95621.28;;;22.45;61.72
8717;BME280;4395;48.554;8.820;2022-09-09T10:30:39;95528.38;;;23.06;59.25
8717;BME280;4395;48.554;8.820;2022-09-09T10:32:48;95638.94;;;23.10;61.29
8717;BME280;4395;48.554;8.820;2022-09-09T10:34:58;95638.31;;;22.92;61.45
8717;BME280;4395;48.554;8.820;2022-09-09T10:37:13;95638.31;;;22.71;63.29
8717;BME280;4395;48.554;8.820;2022-09-09T10:39:33;95627.69;;;23.36;61.03
8717;BME280;4395;48.554;8.820;2022-09-09T10:41:55;95608.84;;;22.89;58.65
8717;BME280;4395;48.554;8.820;2022-09-09T10:44:17;95646.47;;;23.13;59.16
8717;BME280;4395;48.554;8.820;2022-09-09T10:46:26;95667.38;;;22.64;61.17
8717;BME280;4395;48.554;8.820;2022-09-09T10:48:47;95661.22;;;22.25;65.11
8717;BME280;4395;48.554;8.820;2022-09-09T10:50:55;95402.06;;;19.99;63.45
8717;BME280;4395;48.554;8.820;2022-09-09T10:53:12;95330.28;;;19.08;67.46
8717;BME280;4395;48.554;8.820;2022-09-09T10:55:19;95630.22;;;20.81;79.73
8717;BME280;4395;48.554;8.820;2022-09-09T10:57:33;95672.44;;;20.66;85.32
8717;BME280;4395;48.554;8.820;2022-09-09T10:59:41;95742.84;;;19.73;87.65
8717;BME280;4395;48.554;8.820;2022-09-09T11:01:48;95717.81;;;19.71;91.38
8717;BME280;4395;48.554;8.820;2022-09-09T11:03:56;95702.25;;;19.09;97.31
8717;BME280;4395;48.554;8.820;2022-09-09T11:06:04;95725.16;;;18.86;99.38
8717;BME280;4395;48.554;8.820;2022-09-09T11:08:12;95361.84;;;15.40;99.88
8717;BME280;4395;48.554;8.820;2022-09-09T11:10:26;95698.81;;;17.82;100.00
8717;BME280;4395;48.554;8.820;2022-09-09T11:12:36;95701.22;;;17.97;100.00
8717;BME280;4395;48.554;8.820;2022-09-09T11:14:44;95669.69;;;17.27;100.00
8717;BME280;4395;48.554;8.820;2022-09-09T11:16:49;95699.00;;;17.58;100.00
8717;BME280;4395;48.554;8.820;2022-09-09T11:18:57;95691.78;;;17.07;100.00
8717;BME280;4395;48.554;8.820;2022-09-09T11:21:02;95660.84;;;16.76;100.00
8717;BME280;4395;48.554;8.820;2022-09-09T11:23:11;95683.75;;;17.16;100.00
8717;BME280;4395;48.554;8.820;2022-09-09T11:25:18;95598.44;;;16.76;100.00
8717;BME280;4395;48.554;8.820;2022-09-09T11:27:28;95669.34;;;17.01;100.00
8717;BME280;4395;48.554;8.820;2022-09-09T11:32:13;95679.41;;;17.75;100.00
8717;BME280;4395;48.554;8.820;2022-09-09T11:34:32;95339.72;;;15.70;100.00
8717;BME280;4395;48.554;8.820;2022-09-09T11:36:54;95690.28;;;17.75;100.00